Time,TemperatureF,DewpointF,PressureIn,WindDirection,WindDirectionDegrees,WindSpeedMPH,WindSpeedGustMPH,Humidity,HourlyPrecipIn,Conditions,Clouds,dailyrainin,SolarRadiationWatts/m^2,SoftwareType,DateUTC
2013-03-12 00:04:00,46.8,44.6,30.14,WSW,241,0.0,0.0,92,0.00,,,0.00,0.0,meteohub,2013-03-12 07:04:00,
2013-03-12 00:11:00,46.6,44.4,30.14,WSW,241,0.0,0.0,92,0.00,,,0.00,0.0,meteohub,2013-03-12 07:11:00,
2013-03-12 00:17:00,46.2,44.1,30.14,WSW,241,0.0,0.0,92,0.00,,,0.00,0.0,meteohub,2013-03-12 07:17:00,
2013-03-12 00:22:00,46.4,44.4,30.14,WSW,241,0.0,0.0,93,0.00,,,0.00,0.0,meteohub,2013-03-12 07:22:00,
2013-03-12 00:27:00,46.2,44.2,30.14,WSW,241,0.0,0.0,93,0.00,,,0.00,0.0,meteohub,2013-03-12 07:27:00,
2013-03-12 00:32:00,46.2,44.2,30.14,WSW,241,0.0,0.0,93,0.00,,,0.00,0.0,meteohub,2013-03-12 07:32:00,
2013-03-12 00:37:00,46.0,44.1,30.14,WSW,241,0.0,0.0,93,0.00,,,0.00,0.0,meteohub,2013-03-12 07:37:00,
2013-03-12 00:42:00,46.0,44.1,30.14,WSW,241,0.0,0.0,93,0.00,,,0.00,0.0,meteohub,2013-03-12 07:42:00,
2013-03-12 00:47:00,45.9,43.9,30.14,WSW,241,0.0,0.0,93,0.00,,,0.00,0.0,meteohub,2013-03-12 07:47:00,
2013-03-12 00:52:00,45.9,43.9,30.15,WSW,241,0.0,0.0,93,0.00,,,0.00,0.0,meteohub,2013-03-12 07:52:00,
2013-03-12 00:57:00,45.7,43.7,30.14,WSW,241,0.0,0.0,93,0.00,,,0.00,0.0,meteohub,2013-03-12 07:57:00,
2013-03-12 01:02:00,45.9,43.9,30.15,WSW,241,0.0,0.0,93,0.00,,,0.00,0.0,meteohub,2013-03-12 08:02:00,
2013-03-12 01:09:00,45.5,43.5,30.14,WSW,241,0.0,0.0,93,0.00,,,0.00,0.0,meteohub,2013-03-12 08:09:00,
2013-03-12 01:15:00,45.3,43.3,30.14,WSW,241,0.0,0.0,93,0.00,,,0.00,0.0,meteohub,2013-03-12 08:15:00,
2013-03-12 01:21:00,45.1,43.2,30.14,WSW,241,0.0,0.0,93,0.00,,,0.00,0.0,meteohub,2013-03-12 08:21:00,
2013-03-12 01:27:00,45.1,43.2,30.14,WSW,241,0.0,0.0,93,0.00,,,0.00,0.0,meteohub,2013-03-12 08:27:00,
2013-03-12 01:32:00,45.1,43.5,30.14,WSW,241,0.0,0.0,94,0.00,,,0.00,0.0,meteohub,2013-03-12 08:32:00,
2013-03-12 01:37:00,45.1,43.5,30.14,WSW,241,0.0,0.0,94,0.00,,,0.00,0.0,meteohub,2013-03-12 08:37:00,
2013-03-12 01:42:00,45.0,43.3,30.14,WSW,241,0.0,0.0,94,0.00,,,0.00,0.0,meteohub,2013-03-12 08:42:00,
2013-03-12 01:47:00,45.0,43.3,30.15,WSW,241,0.0,0.0,94,0.00,,,0.00,0.0,meteohub,2013-03-12 08:47:00,
2013-03-12 01:52:00,44.8,43.2,30.14,WSW,241,0.0,0.0,94,0.00,,,0.00,0.0,meteohub,2013-03-12 08:52:00,
2013-03-12 01:57:00,44.8,43.2,30.14,WSW,241,0.0,0.0,94,0.00,,,0.00,0.0,meteohub,2013-03-12 08:57:00,
2013-03-12 02:02:00,44.6,43.0,30.14,WSW,241,0.0,0.0,94,0.00,,,0.00,0.0,meteohub,2013-03-12 09:02:00,
2013-03-12 02:07:00,44.4,42.8,30.14,WSW,241,0.0,0.0,94,0.00,,,0.00,0.0,meteohub,2013-03-12 09:07:00,
2013-03-12 02:13:00,44.2,42.6,30.14,WSW,241,0.0,0.0,94,0.00,,,0.00,0.0,meteohub,2013-03-12 09:13:00,
2013-03-12 02:19:00,44.2,42.6,30.14,WSW,241,0.0,0.0,94,0.00,,,0.00,0.0,meteohub,2013-03-12 09:19:00,
2013-03-12 02:26:00,44.1,42.4,30.14,WSW,241,0.0,0.0,94,0.00,,,0.00,0.0,meteohub,2013-03-12 09:26:00,
2013-03-12 02:32:00,44.1,42.4,30.14,WSW,241,0.0,0.0,94,0.00,,,0.00,0.0,meteohub,2013-03-12 09:32:00,
2013-03-12 02:38:00,43.9,42.3,30.14,WSW,241,0.0,0.0,94,0.00,,,0.00,0.0,meteohub,2013-03-12 09:38:00,
2013-03-12 02:44:00,43.7,42.1,30.15,WSW,241,0.0,0.0,94,0.00,,,0.00,0.0,meteohub,2013-03-12 09:44:00,
2013-03-12 02:50:00,43.5,41.9,30.15,WSW,241,0.0,0.0,94,0.00,,,0.00,0.0,meteohub,2013-03-12 09:50:00,
2013-03-12 02:57:00,43.5,41.9,30.14,WSW,241,0.0,0.0,94,0.00,,,0.00,0.0,meteohub,2013-03-12 09:57:00,
2013-03-12 03:02:00,43.3,41.7,30.14,WSW,241,0.0,0.0,94,0.00,,,0.00,0.0,meteohub,2013-03-12 10:02:00,
2013-03-12 03:07:00,43.3,41.7,30.14,WSW,241,0.0,0.0,94,0.00,,,0.00,0.0,meteohub,2013-03-12 10:07:00,
2013-03-12 03:12:00,43.2,41.5,30.14,WSW,241,0.0,0.0,94,0.00,,,0.00,0.0,meteohub,2013-03-12 10:12:00,
2013-03-12 03:17:00,43.2,41.5,30.14,WSW,241,0.0,0.0,94,0.00,,,0.00,0.0,meteohub,2013-03-12 10:17:00,
2013-03-12 03:22:00,43.2,41.9,30.14,WSW,241,0.0,0.0,95,0.00,,,0.00,0.0,meteohub,2013-03-12 10:22:00,
2013-03-12 03:28:00,43.0,41.4,30.14,WSW,241,0.0,0.0,94,0.00,,,0.00,0.0,meteohub,2013-03-12 10:28:00,
2013-03-12 03:34:00,43.0,41.4,30.14,WSW,241,0.0,0.0,94,0.00,,,0.00,0.0,meteohub,2013-03-12 10:34:00,
2013-03-12 03:40:00,42.8,41.2,30.13,WSW,241,0.0,0.0,94,0.00,,,0.00,0.0,meteohub,2013-03-12 10:40:00,
2013-03-12 03:47:00,42.6,41.4,30.13,WSW,241,0.0,0.0,95,0.00,,,0.00,0.0,meteohub,2013-03-12 10:47:00,
2013-03-12 03:52:00,42.6,41.4,30.13,WSW,241,0.0,0.0,95,0.00,,,0.00,0.0,meteohub,2013-03-12 10:52:00,
2013-03-12 03:57:00,42.8,41.5,30.13,WSW,241,0.0,0.0,95,0.00,,,0.00,0.0,meteohub,2013-03-12 10:57:00,
2013-03-12 04:03:00,42.6,41.4,30.13,WSW,241,0.0,0.0,95,0.00,,,0.00,0.0,meteohub,2013-03-12 11:03:00,
2013-03-12 04:10:00,42.6,41.4,30.13,WSW,241,0.0,0.0,95,0.00,,,0.00,0.0,meteohub,2013-03-12 11:10:00,
2013-03-12 04:17:00,42.6,41.4,30.13,WSW,241,0.0,0.0,95,0.00,,,0.00,0.0,meteohub,2013-03-12 11:17:00,
2013-03-12 04:22:00,42.6,41.4,30.13,WSW,241,0.0,0.0,95,0.00,,,0.00,0.0,meteohub,2013-03-12 11:22:00,
2013-03-12 04:28:00,42.6,41.4,30.13,WSW,241,0.0,0.0,95,0.00,,,0.00,0.0,meteohub,2013-03-12 11:28:00,
2013-03-12 04:34:00,42.6,41.4,30.13,WSW,241,0.0,0.0,95,0.00,,,0.00,0.0,meteohub,2013-03-12 11:34:00,
2013-03-12 04:41:00,42.6,41.4,30.13,WSW,241,0.0,0.0,95,0.00,,,0.00,0.0,meteohub,2013-03-12 11:41:00,
2013-03-12 04:47:00,42.4,41.2,30.13,WSW,241,0.0,0.0,95,0.00,,,0.00,0.0,meteohub,2013-03-12 11:47:00,
2013-03-12 04:52:00,42.4,41.2,30.13,WSW,241,0.0,0.0,95,0.00,,,0.00,0.0,meteohub,2013-03-12 11:52:00,
2013-03-12 04:57:00,42.4,41.2,30.13,WSW,241,0.0,0.0,95,0.00,,,0.00,0.0,meteohub,2013-03-12 11:57:00,
2013-03-12 05:03:00,42.3,41.0,30.13,WSW,241,0.0,0.0,95,0.00,,,0.00,0.0,meteohub,2013-03-12 12:03:00,
2013-03-12 05:10:00,42.3,41.0,30.14,WSW,241,0.0,0.0,95,0.00,,,0.00,0.0,meteohub,2013-03-12 12:10:00,
2013-03-12 05:17:00,42.3,41.0,30.13,WSW,241,0.0,0.0,95,0.00,,,0.00,0.0,meteohub,2013-03-12 12:17:00,
2013-03-12 05:22:00,42.1,40.8,30.13,WSW,241,0.0,0.0,95,0.00,,,0.00,0.0,meteohub,2013-03-12 12:22:00,
2013-03-12 05:27:00,42.1,40.8,30.14,WSW,241,0.0,0.0,95,0.00,,,0.00,0.0,meteohub,2013-03-12 12:27:00,
2013-03-12 05:32:00,42.1,40.8,30.14,WSW,241,0.0,0.0,95,0.00,,,0.00,0.0,meteohub,2013-03-12 12:32:00,
2013-03-12 05:37:00,42.1,40.8,30.14,WSW,241,0.0,0.0,95,0.00,,,0.00,0.0,meteohub,2013-03-12 12:37:00,
2013-03-12 05:42:00,42.1,40.8,30.14,WSW,241,0.0,0.0,95,0.00,,,0.00,0.0,meteohub,2013-03-12 12:42:00,
2013-03-12 05:47:00,42.1,40.8,30.14,WSW,241,0.0,0.0,95,0.00,,,0.00,0.0,meteohub,2013-03-12 12:47:00,
2013-03-12 05:53:00,42.1,40.8,30.14,WSW,241,0.0,0.0,95,0.00,,,0.00,0.0,meteohub,2013-03-12 12:53:00,
2013-03-12 06:00:00,42.1,40.8,30.14,WSW,241,0.0,0.0,95,0.00,,,0.00,0.0,meteohub,2013-03-12 13:00:00,
2013-03-12 06:06:00,42.1,40.8,30.14,WSW,241,0.0,0.0,95,0.00,,,0.00,0.0,meteohub,2013-03-12 13:06:00,
2013-03-12 06:12:00,42.3,41.2,30.14,WSW,241,0.0,0.0,96,0.00,,,0.00,0.0,meteohub,2013-03-12 13:12:00,
2013-03-12 06:17:00,42.3,41.2,30.14,WSW,241,0.0,0.0,96,0.00,,,0.00,0.0,meteohub,2013-03-12 13:17:00,
2013-03-12 06:23:00,42.3,41.2,30.14,WSW,241,0.0,0.0,96,0.00,,,0.00,0.0,meteohub,2013-03-12 13:23:00,
2013-03-12 06:29:00,42.3,41.2,30.14,WSW,241,0.0,0.0,96,0.00,,,0.00,0.0,meteohub,2013-03-12 13:29:00,
2013-03-12 06:35:00,42.1,41.0,30.14,WSW,241,0.0,0.0,96,0.00,,,0.00,0.0,meteohub,2013-03-12 13:35:00,
2013-03-12 06:42:00,42.1,41.0,30.14,WSW,241,0.0,0.0,96,0.00,,,0.00,0.0,meteohub,2013-03-12 13:42:00,
2013-03-12 06:47:00,41.9,40.8,30.14,WSW,241,0.0,0.0,96,0.00,,,0.00,0.0,meteohub,2013-03-12 13:47:00,
2013-03-12 06:52:00,42.1,41.0,30.14,WSW,241,0.0,0.0,96,0.00,,,0.00,0.0,meteohub,2013-03-12 13:52:00,
2013-03-12 06:57:00,41.9,40.8,30.15,WSW,241,0.0,0.0,96,0.00,,,0.00,0.0,meteohub,2013-03-12 13:57:00,
2013-03-12 07:02:00,42.1,41.0,30.15,WSW,241,0.0,0.0,96,0.00,,,0.00,0.0,meteohub,2013-03-12 14:02:00,
2013-03-12 07:09:00,42.1,41.0,30.15,WSW,241,0.0,0.0,96,0.00,,,0.00,0.0,meteohub,2013-03-12 14:09:00,
2013-03-12 07:15:00,42.1,41.0,30.15,WSW,241,0.0,0.0,96,0.00,,,0.00,0.0,meteohub,2013-03-12 14:15:00,
2013-03-12 07:21:00,42.1,41.0,30.15,WSW,241,0.0,0.0,96,0.00,,,0.00,0.0,meteohub,2013-03-12 14:21:00,
2013-03-12 07:27:00,42.1,41.0,30.15,WSW,241,0.0,0.0,96,0.00,,,0.00,0.0,meteohub,2013-03-12 14:27:00,
2013-03-12 07:32:00,42.1,41.0,30.15,WSW,241,0.0,0.0,96,0.00,,,0.00,0.0,meteohub,2013-03-12 14:32:00,
2013-03-12 07:37:00,42.1,41.0,30.15,WSW,241,0.0,0.0,96,0.00,,,0.00,5.0,meteohub,2013-03-12 14:37:00,
2013-03-12 07:42:00,42.1,41.0,30.16,WSW,241,0.0,0.0,96,0.00,,,0.00,9.0,meteohub,2013-03-12 14:42:00,
2013-03-12 07:47:00,41.9,40.8,30.15,WSW,241,0.0,0.0,96,0.00,,,0.00,12.0,meteohub,2013-03-12 14:47:00,
2013-03-12 07:52:00,41.7,40.6,30.16,WSW,241,0.0,0.0,96,0.00,,,0.00,12.0,meteohub,2013-03-12 14:52:00,
2013-03-12 07:57:00,41.9,40.8,30.16,WSW,241,0.0,0.0,96,0.00,,,0.00,18.0,meteohub,2013-03-12 14:57:00,
2013-03-12 08:02:00,41.9,40.8,30.16,WSW,241,0.0,0.0,96,0.00,,,0.00,21.0,meteohub,2013-03-12 15:02:00,
2013-03-12 08:07:00,42.1,41.0,30.17,WSW,241,0.0,0.0,96,0.00,,,0.00,28.0,meteohub,2013-03-12 15:07:00,
2013-03-12 08:14:00,42.3,41.2,30.17,WSW,241,0.0,0.0,96,0.00,,,0.00,35.0,meteohub,2013-03-12 15:14:00,
2013-03-12 08:20:00,42.3,41.2,30.17,WSW,241,0.0,0.0,96,0.00,,,0.00,40.0,meteohub,2013-03-12 15:20:00,
2013-03-12 08:26:00,42.1,41.0,30.17,WSW,241,0.0,0.0,96,0.00,,,0.00,51.0,meteohub,2013-03-12 15:26:00,
2013-03-12 08:32:00,42.1,41.0,30.17,WSW,241,0.0,0.0,96,0.00,,,0.00,63.0,meteohub,2013-03-12 15:32:00,
2013-03-12 08:37:00,42.3,41.5,30.18,WSW,241,0.0,0.0,97,0.00,,,0.00,65.0,meteohub,2013-03-12 15:37:00,
2013-03-12 08:42:00,42.3,41.5,30.18,WSW,241,0.0,0.0,97,0.00,,,0.00,84.0,meteohub,2013-03-12 15:42:00,
2013-03-12 08:47:00,42.4,41.7,30.18,WSW,241,0.0,0.0,97,0.00,,,0.00,100.0,meteohub,2013-03-12 15:47:00,
2013-03-12 08:52:00,42.4,41.7,30.18,WSW,241,0.0,0.0,97,0.00,,,0.00,127.0,meteohub,2013-03-12 15:52:00,
2013-03-12 08:57:00,42.6,41.9,30.18,WSW,241,0.0,0.0,97,0.00,,,0.00,121.0,meteohub,2013-03-12 15:57:00,
2013-03-12 09:02:00,43.0,42.3,30.18,WSW,241,0.0,0.0,97,0.00,,,0.00,137.0,meteohub,2013-03-12 16:02:00,
2013-03-12 09:07:00,43.2,42.4,30.18,WSW,241,0.0,0.0,97,0.00,,,0.00,181.0,meteohub,2013-03-12 16:07:00,
2013-03-12 09:12:00,43.3,42.6,30.18,WSW,241,0.0,0.0,97,0.00,,,0.00,206.0,meteohub,2013-03-12 16:12:00,
2013-03-12 09:18:00,43.5,42.8,30.19,WSW,241,0.0,0.0,97,0.00,,,0.00,223.0,meteohub,2013-03-12 16:18:00,
2013-03-12 09:25:00,44.1,43.3,30.19,WSW,241,0.0,0.0,97,0.00,,,0.00,216.0,meteohub,2013-03-12 16:25:00,
2013-03-12 09:31:00,44.4,43.7,30.18,WSW,241,0.0,0.0,97,0.00,,,0.00,137.0,meteohub,2013-03-12 16:31:00,
2013-03-12 09:37:00,44.8,44.1,30.18,WSW,241,0.0,0.0,97,0.00,,,0.00,234.0,meteohub,2013-03-12 16:37:00,
2013-03-12 09:42:00,45.0,44.2,30.18,WSW,240,0.0,0.0,97,0.00,,,0.00,155.0,meteohub,2013-03-12 16:42:00,
2013-03-12 09:47:00,45.3,44.6,30.18,WSW,240,0.0,0.0,97,0.00,,,0.00,204.0,meteohub,2013-03-12 16:47:00,
2013-03-12 09:52:00,46.0,45.3,30.18,WSW,240,0.0,0.0,97,0.00,,,0.00,248.0,meteohub,2013-03-12 16:52:00,
2013-03-12 09:58:00,46.9,46.2,30.18,WSW,240,0.0,0.0,97,0.00,,,0.00,404.0,meteohub,2013-03-12 16:58:00,
2013-03-12 10:04:00,47.8,46.9,30.18,WSW,240,0.0,0.0,97,0.00,,,0.00,441.0,meteohub,2013-03-12 17:04:00,
2013-03-12 10:10:00,48.9,47.8,30.18,WSW,240,0.0,0.0,96,0.00,,,0.00,476.0,meteohub,2013-03-12 17:10:00,
2013-03-12 10:17:00,50.0,48.4,30.17,SSW,202,0.0,0.0,94,0.00,,,0.00,499.0,meteohub,2013-03-12 17:17:00,
2013-03-12 10:22:00,50.7,48.7,30.17,SSW,202,0.0,0.0,93,0.00,,,0.00,515.0,meteohub,2013-03-12 17:22:00,
2013-03-12 10:27:00,51.6,49.5,30.17,SSW,202,0.0,0.0,92,0.00,,,0.00,531.0,meteohub,2013-03-12 17:27:00,
2013-03-12 10:32:00,52.5,49.6,30.17,SSW,202,0.0,0.0,90,0.00,,,0.00,547.0,meteohub,2013-03-12 17:32:00,
2013-03-12 10:37:00,53.8,50.5,30.17,SSW,202,0.0,0.0,89,0.00,,,0.00,564.0,meteohub,2013-03-12 17:37:00,
2013-03-12 10:44:00,55.0,50.9,30.16,SSW,202,0.0,0.0,86,0.00,,,0.00,584.0,meteohub,2013-03-12 17:44:00,
2013-03-12 10:50:00,56.1,51.4,30.16,SSW,202,0.0,0.0,84,0.00,,,0.00,592.0,meteohub,2013-03-12 17:50:00,
2013-03-12 10:56:00,56.8,51.4,30.16,SSW,202,0.0,0.0,82,0.00,,,0.00,606.0,meteohub,2013-03-12 17:56:00,
2013-03-12 11:02:00,57.6,51.4,30.16,SSW,202,0.0,0.0,80,0.00,,,0.00,626.0,meteohub,2013-03-12 18:02:00,
2013-03-12 11:07:00,58.3,51.8,30.16,SSW,202,0.0,0.0,79,0.00,,,0.00,628.0,meteohub,2013-03-12 18:07:00,
2013-03-12 11:12:00,58.6,51.4,30.16,SSW,202,0.0,0.0,77,0.00,,,0.00,633.0,meteohub,2013-03-12 18:12:00,
2013-03-12 11:19:00,59.7,51.8,30.16,SSW,202,0.0,0.0,75,0.00,,,0.00,668.0,meteohub,2013-03-12 18:19:00,
2013-03-12 11:26:00,61.2,52.5,30.15,SSW,202,0.0,0.0,73,0.00,,,0.00,680.0,meteohub,2013-03-12 18:26:00,
2013-03-12 11:32:00,62.4,53.2,30.15,SSW,202,0.0,0.0,72,0.00,,,0.00,694.0,meteohub,2013-03-12 18:32:00,
2013-03-12 11:37:00,63.3,52.5,30.15,SSW,202,0.0,0.0,68,0.00,,,0.00,703.0,meteohub,2013-03-12 18:37:00,
2013-03-12 11:42:00,64.4,52.0,30.15,SSW,202,0.0,0.0,64,0.00,,,0.00,715.0,meteohub,2013-03-12 18:42:00,
2013-03-12 11:49:00,65.3,51.4,30.15,SSW,202,0.0,0.0,61,0.00,,,0.00,724.0,meteohub,2013-03-12 18:49:00,
2013-03-12 11:55:00,66.0,52.7,30.15,SSW,202,0.0,0.0,62,0.00,,,0.00,735.0,meteohub,2013-03-12 18:55:00,
2013-03-12 12:02:00,66.7,52.3,30.15,SSW,202,0.0,0.0,60,0.00,,,0.00,742.0,meteohub,2013-03-12 19:02:00,
2013-03-12 12:08:00,67.5,54.5,30.15,SSW,199,1.0,2.0,63,0.00,,,0.00,752.0,meteohub,2013-03-12 19:08:00,
2013-03-12 12:14:00,68.2,53.8,30.14,SSW,198,1.0,2.0,60,0.00,,,0.00,761.0,meteohub,2013-03-12 19:14:00,
2013-03-12 12:21:00,68.5,53.2,30.14,SSW,198,2.0,4.0,58,0.00,,,0.00,768.0,meteohub,2013-03-12 19:21:00,
2013-03-12 12:27:00,68.7,52.9,30.14,SSW,198,1.0,4.0,57,0.00,,,0.00,777.0,meteohub,2013-03-12 19:27:00,
2013-03-12 12:33:00,69.6,53.2,30.13,SSW,198,0.0,4.0,56,0.00,,,0.00,779.0,meteohub,2013-03-12 19:33:00,
2013-03-12 12:40:00,70.5,53.1,30.13,SSW,198,1.0,2.0,54,0.00,,,0.00,788.0,meteohub,2013-03-12 19:40:00,
2013-03-12 12:46:00,71.1,53.6,30.13,SSW,198,1.0,2.0,54,0.00,,,0.00,788.0,meteohub,2013-03-12 19:46:00,
2013-03-12 12:52:00,71.1,53.6,30.13,SSW,198,1.0,4.0,54,0.00,,,0.00,793.0,meteohub,2013-03-12 19:52:00,
2013-03-12 12:57:00,71.1,52.5,30.13,SSW,197,1.0,3.0,52,0.00,,,0.00,796.0,meteohub,2013-03-12 19:57:00,
2013-03-12 13:02:00,71.4,52.9,30.12,SSW,198,0.0,3.0,52,0.00,,,0.00,800.0,meteohub,2013-03-12 20:02:00,
2013-03-12 13:07:00,72.3,54.1,30.12,SSW,197,0.0,2.0,53,0.00,,,0.00,798.0,meteohub,2013-03-12 20:07:00,
2013-03-12 13:13:00,73.2,54.0,30.12,SSW,197,1.0,2.0,51,0.00,,,0.00,798.0,meteohub,2013-03-12 20:13:00,
2013-03-12 13:19:00,73.2,53.4,30.12,WSW,240,1.0,2.0,50,0.00,,,0.00,802.0,meteohub,2013-03-12 20:19:00,
2013-03-12 13:25:00,73.2,54.0,30.12,SSW,211,0.0,5.0,51,0.00,,,0.00,803.0,meteohub,2013-03-12 20:25:00,
2013-03-12 13:32:00,73.6,54.9,30.11,SSE,165,4.0,5.0,52,0.00,,,0.00,791.0,meteohub,2013-03-12 20:32:00,
2013-03-12 13:37:00,73.8,54.0,30.11,SW,228,2.0,7.0,50,0.00,,,0.00,800.0,meteohub,2013-03-12 20:37:00,
2013-03-12 13:42:00,73.9,54.1,30.11,WSW,240,4.0,7.0,50,0.00,,,0.00,798.0,meteohub,2013-03-12 20:42:00,
2013-03-12 13:47:00,73.9,54.7,30.10,SW,236,2.0,8.0,51,0.00,,,0.00,796.0,meteohub,2013-03-12 20:47:00,
2013-03-12 13:52:00,73.9,54.7,30.10,SSW,196,5.0,8.0,51,0.00,,,0.00,793.0,meteohub,2013-03-12 20:52:00,
2013-03-12 13:58:00,73.9,54.7,30.10,WSW,247,1.0,10.0,51,0.00,,,0.00,788.0,meteohub,2013-03-12 20:58:00,
2013-03-12 14:05:00,73.8,54.0,30.10,SW,229,6.0,10.0,50,0.00,,,0.00,786.0,meteohub,2013-03-12 21:05:00,
2013-03-12 14:11:00,73.6,53.8,30.10,South,170,4.0,9.0,50,0.00,,,0.00,782.0,meteohub,2013-03-12 21:11:00,
2013-03-12 14:17:00,72.7,53.4,30.09,WSW,248,4.0,10.0,51,0.00,,,0.00,775.0,meteohub,2013-03-12 21:17:00,
2013-03-12 14:23:00,72.9,53.6,30.09,SW,236,6.0,10.0,51,0.00,,,0.00,768.0,meteohub,2013-03-12 21:23:00,
2013-03-12 14:29:00,73.0,53.2,30.09,SW,221,5.0,10.0,50,0.00,,,0.00,763.0,meteohub,2013-03-12 21:29:00,
2013-03-12 14:36:00,72.3,52.7,30.09,SW,220,5.0,12.0,50,0.00,,,0.00,752.0,meteohub,2013-03-12 21:36:00,
2013-03-12 14:42:00,72.1,53.1,30.09,SSW,203,7.0,12.0,51,0.00,,,0.00,744.0,meteohub,2013-03-12 21:42:00,
2013-03-12 14:47:00,71.8,52.7,30.09,SW,214,4.0,13.0,51,0.00,,,0.00,735.0,meteohub,2013-03-12 21:47:00,
2013-03-12 14:52:00,71.4,52.3,30.09,SW,230,9.0,14.0,51,0.00,,,0.00,728.0,meteohub,2013-03-12 21:52:00,
2013-03-12 14:57:00,70.9,51.8,30.09,SW,224,10.0,14.0,51,0.00,,,0.00,717.0,meteohub,2013-03-12 21:57:00,
2013-03-12 15:03:00,71.4,51.8,30.09,SSW,207,7.0,14.0,50,0.00,,,0.00,705.0,meteohub,2013-03-12 22:03:00,
2013-03-12 15:09:00,71.2,51.6,30.08,West,275,5.0,13.0,50,0.00,,,0.00,696.0,meteohub,2013-03-12 22:09:00,
2013-03-12 15:15:00,71.6,52.0,30.09,SW,227,8.0,12.0,50,0.00,,,0.00,693.0,meteohub,2013-03-12 22:15:00,
2013-03-12 15:21:00,71.2,51.6,30.09,WSW,243,6.0,11.0,50,0.00,,,0.00,679.0,meteohub,2013-03-12 22:21:00,
2013-03-12 15:27:00,71.4,51.8,30.09,South,174,2.0,10.0,50,0.00,,,0.00,663.0,meteohub,2013-03-12 22:27:00,
2013-03-12 15:32:00,71.6,52.0,30.08,SSW,202,6.0,10.0,50,0.00,,,0.00,652.0,meteohub,2013-03-12 22:32:00,
2013-03-12 15:37:00,71.6,52.0,30.09,SW,232,7.0,10.0,50,0.00,,,0.00,633.0,meteohub,2013-03-12 22:37:00,
2013-03-12 15:42:00,71.4,51.8,30.09,South,184,6.0,11.0,50,0.00,,,0.00,635.0,meteohub,2013-03-12 22:42:00,
2013-03-12 15:47:00,72.0,52.3,30.09,WSW,241,8.0,11.0,50,0.00,,,0.00,633.0,meteohub,2013-03-12 22:47:00,
2013-03-12 15:53:00,72.0,51.3,30.09,SSE,155,6.0,11.0,48,0.00,,,0.00,631.0,meteohub,2013-03-12 22:53:00,
2013-03-12 15:59:00,71.2,51.1,30.09,SW,236,4.0,11.0,49,0.00,,,0.00,598.0,meteohub,2013-03-12 22:59:00,
2013-03-12 16:05:00,71.4,51.3,30.09,WSW,240,4.0,11.0,49,0.00,,,0.00,529.0,meteohub,2013-03-12 23:05:00,
2013-03-12 16:11:00,71.2,51.6,30.09,SSW,211,0.0,10.0,50,0.00,,,0.00,552.0,meteohub,2013-03-12 23:11:00,
2013-03-12 16:17:00,71.2,51.1,30.09,SSW,202,0.0,10.0,49,0.00,,,0.00,519.0,meteohub,2013-03-12 23:17:00,
2013-03-12 16:22:00,70.9,50.7,30.09,South,188,3.0,10.0,49,0.00,,,0.00,541.0,meteohub,2013-03-12 23:22:00,
2013-03-12 16:28:00,70.3,51.4,30.09,SSW,213,1.0,11.0,51,0.00,,,0.00,520.0,meteohub,2013-03-12 23:28:00,
2013-03-12 16:34:00,70.9,51.8,30.08,SW,217,7.0,11.0,51,0.00,,,0.00,499.0,meteohub,2013-03-12 23:34:00,
2013-03-12 16:40:00,70.9,51.3,30.08,SSW,206,2.0,11.0,50,0.00,,,0.00,490.0,meteohub,2013-03-12 23:40:00,
2013-03-12 16:47:00,70.9,51.8,30.08,WSW,241,4.0,8.0,51,0.00,,,0.00,441.0,meteohub,2013-03-12 23:47:00,
2013-03-12 16:52:00,71.1,51.4,30.08,WSW,254,0.0,8.0,50,0.00,,,0.00,473.0,meteohub,2013-03-12 23:52:00,
2013-03-12 16:57:00,71.2,51.1,30.08,SW,216,2.0,7.0,49,0.00,,,0.00,461.0,meteohub,2013-03-12 23:57:00,
2013-03-12 17:02:00,71.6,50.9,30.08,WSW,238,2.0,7.0,48,0.00,,,0.00,461.0,meteohub,2013-03-13 00:02:00,
2013-03-12 17:07:00,71.4,51.8,30.08,WSW,245,1.0,6.0,50,0.00,,,0.00,422.0,meteohub,2013-03-13 00:07:00,
2013-03-12 17:14:00,71.2,51.1,30.08,SSW,208,1.0,6.0,49,0.00,,,0.00,345.0,meteohub,2013-03-13 00:14:00,
2013-03-12 17:20:00,70.7,51.6,30.08,SSW,201,1.0,6.0,51,0.00,,,0.00,244.0,meteohub,2013-03-13 00:20:00,
2013-03-12 17:26:00,70.2,52.2,30.08,SSW,212,0.0,6.0,53,0.00,,,0.00,116.0,meteohub,2013-03-13 00:26:00,
2013-03-12 17:32:00,69.3,52.9,30.08,SW,216,0.0,5.0,56,0.00,,,0.00,160.0,meteohub,2013-03-13 00:32:00,
2013-03-12 17:37:00,68.7,52.9,30.08,SW,217,0.0,5.0,57,0.00,,,0.00,91.0,meteohub,2013-03-13 00:37:00,
2013-03-12 17:42:00,68.4,52.5,30.08,SW,217,1.0,3.0,57,0.00,,,0.00,69.0,meteohub,2013-03-13 00:42:00,
2013-03-12 17:47:00,67.6,51.4,30.07,WSW,244,2.0,5.0,56,0.00,,,0.00,69.0,meteohub,2013-03-13 00:47:00,
2013-03-12 17:53:00,66.9,53.1,30.07,WNW,296,0.0,5.0,61,0.00,,,0.00,69.0,meteohub,2013-03-13 00:53:00,
2013-03-12 17:59:00,66.2,52.0,30.07,WSW,252,1.0,5.0,60,0.00,,,0.00,70.0,meteohub,2013-03-13 00:59:00,
2013-03-12 18:05:00,66.4,52.5,30.07,West,262,0.0,5.0,61,0.00,,,0.00,74.0,meteohub,2013-03-13 01:05:00,
2013-03-12 18:12:00,66.0,51.8,30.08,West,263,2.0,4.0,60,0.00,,,0.00,76.0,meteohub,2013-03-13 01:12:00,
2013-03-12 18:17:00,66.0,50.4,30.08,WNW,283,2.0,4.0,57,0.00,,,0.00,77.0,meteohub,2013-03-13 01:17:00,
2013-03-12 18:22:00,65.8,50.7,30.08,WNW,286,0.0,6.0,58,0.00,,,0.00,74.0,meteohub,2013-03-13 01:22:00,
2013-03-12 18:29:00,65.7,51.8,30.08,WNW,288,1.0,6.0,61,0.00,,,0.00,63.0,meteohub,2013-03-13 01:29:00,
2013-03-12 18:35:00,65.5,50.4,30.08,WNW,288,1.0,4.0,58,0.00,,,0.00,54.0,meteohub,2013-03-13 01:35:00,
2013-03-12 18:41:00,64.9,51.6,30.08,WNW,288,0.0,4.0,62,0.00,,,0.00,44.0,meteohub,2013-03-13 01:41:00,
2013-03-12 18:47:00,64.2,51.4,30.08,WNW,288,1.0,4.0,63,0.00,,,0.00,35.0,meteohub,2013-03-13 01:47:00,
2013-03-12 18:52:00,63.5,51.1,30.08,WNW,288,1.0,2.0,64,0.00,,,0.00,28.0,meteohub,2013-03-13 01:52:00,
2013-03-12 18:57:00,63.0,50.2,30.08,WNW,286,2.0,3.0,63,0.00,,,0.00,19.0,meteohub,2013-03-13 01:57:00,
2013-03-12 19:02:00,62.4,50.9,30.09,WNW,286,1.0,4.0,66,0.00,,,0.00,14.0,meteohub,2013-03-13 02:02:00,
2013-03-12 19:07:00,61.9,50.0,30.09,WSW,256,0.0,4.0,65,0.00,,,0.00,9.0,meteohub,2013-03-13 02:07:00,
2013-03-12 19:12:00,61.3,50.4,30.09,WSW,256,0.0,5.0,67,0.00,,,0.00,0.0,meteohub,2013-03-13 02:12:00,
2013-03-12 19:18:00,60.4,50.2,30.09,WSW,256,1.0,5.0,69,0.00,,,0.00,0.0,meteohub,2013-03-13 02:18:00,
2013-03-12 19:24:00,59.7,50.7,30.09,WSW,256,1.0,4.0,72,0.00,,,0.00,0.0,meteohub,2013-03-13 02:24:00,
2013-03-12 19:31:00,58.8,50.5,30.09,WSW,256,0.0,2.0,74,0.00,,,0.00,0.0,meteohub,2013-03-13 02:31:00,
2013-03-12 19:37:00,58.5,50.2,30.09,WSW,256,2.0,3.0,74,0.00,,,0.00,0.0,meteohub,2013-03-13 02:37:00,
2013-03-12 19:43:00,57.9,49.6,30.10,WSW,256,1.0,4.0,74,0.00,,,0.00,0.0,meteohub,2013-03-13 02:43:00,
2013-03-12 19:49:00,57.7,48.7,30.10,WSW,256,0.0,4.0,72,0.00,,,0.00,0.0,meteohub,2013-03-13 02:49:00,
2013-03-12 19:55:00,57.4,48.7,30.10,WSW,256,0.0,4.0,73,0.00,,,0.00,0.0,meteohub,2013-03-13 02:55:00,
2013-03-12 20:01:00,56.8,48.9,30.10,WSW,256,0.0,4.0,75,0.00,,,0.00,0.0,meteohub,2013-03-13 03:01:00,
2013-03-12 20:07:00,56.3,48.9,30.10,WSW,256,0.0,4.0,76,0.00,,,0.00,0.0,meteohub,2013-03-13 03:07:00,
2013-03-12 20:12:00,55.9,48.9,30.11,WSW,256,0.0,2.0,77,0.00,,,0.00,0.0,meteohub,2013-03-13 03:12:00,
2013-03-12 20:17:00,55.8,48.7,30.11,WSW,256,0.0,0.0,77,0.00,,,0.00,0.0,meteohub,2013-03-13 03:17:00,
2013-03-12 20:22:00,55.4,48.7,30.11,WSW,256,0.0,0.0,78,0.00,,,0.00,0.0,meteohub,2013-03-13 03:22:00,
2013-03-12 20:28:00,55.2,48.6,30.11,WSW,256,0.0,0.0,78,0.00,,,0.00,0.0,meteohub,2013-03-13 03:28:00,
2013-03-12 20:35:00,54.9,48.6,30.11,WSW,256,0.0,0.0,79,0.00,,,0.00,0.0,meteohub,2013-03-13 03:35:00,
2013-03-12 20:41:00,54.5,48.4,30.11,WSW,256,0.0,0.0,80,0.00,,,0.00,0.0,meteohub,2013-03-13 03:41:00,
2013-03-12 20:47:00,54.1,48.0,30.11,WSW,256,0.0,0.0,80,0.00,,,0.00,0.0,meteohub,2013-03-13 03:47:00,
2013-03-12 20:52:00,54.1,48.0,30.12,WSW,256,0.0,0.0,80,0.00,,,0.00,0.0,meteohub,2013-03-13 03:52:00,
2013-03-12 20:58:00,53.8,48.0,30.12,WSW,256,0.0,0.0,81,0.00,,,0.00,0.0,meteohub,2013-03-13 03:58:00,
2013-03-12 21:00:00,53.6,47.8,30.11,WSW,256,0.0,0.0,81,0.00,,,0.00,0.0,meteohub,2013-03-13 04:00:00,
2013-03-12 21:02:00,53.4,47.7,30.12,WSW,256,0.0,0.0,81,0.00,,,0.00,0.0,meteohub,2013-03-13 04:02:00,
2013-03-12 21:04:00,53.2,47.8,30.12,WSW,256,0.0,0.0,82,0.00,,,0.00,0.0,meteohub,2013-03-13 04:04:00,
2013-03-12 21:11:00,53.1,47.7,30.12,WSW,256,0.0,0.0,82,0.00,,,0.00,0.0,meteohub,2013-03-13 04:11:00,
2013-03-12 21:13:00,53.1,47.7,30.12,WSW,256,0.0,0.0,82,0.00,,,0.00,0.0,meteohub,2013-03-13 04:13:00,
2013-03-12 21:19:00,52.7,47.7,30.12,WSW,256,0.0,0.0,83,0.00,,,0.00,0.0,meteohub,2013-03-13 04:19:00,
2013-03-12 21:25:00,52.3,47.3,30.12,WSW,256,0.0,0.0,83,0.00,,,0.00,0.0,meteohub,2013-03-13 04:25:00,
2013-03-12 21:31:00,52.0,47.7,30.12,WSW,256,0.0,0.0,85,0.00,,,0.00,0.0,meteohub,2013-03-13 04:31:00,
2013-03-12 21:37:00,51.8,47.5,30.12,WSW,256,0.0,0.0,85,0.00,,,0.00,0.0,meteohub,2013-03-13 04:37:00,
2013-03-12 21:42:00,51.6,47.3,30.12,WSW,256,0.0,0.0,85,0.00,,,0.00,0.0,meteohub,2013-03-13 04:42:00,
2013-03-12 21:48:00,51.4,47.5,30.12,WSW,256,0.0,0.0,86,0.00,,,0.00,0.0,meteohub,2013-03-13 04:48:00,
2013-03-12 21:54:00,51.3,47.3,30.12,WSW,256,0.0,0.0,86,0.00,,,0.00,0.0,meteohub,2013-03-13 04:54:00,
2013-03-12 22:00:00,51.1,47.3,30.13,WSW,256,0.0,0.0,87,0.00,,,0.00,0.0,meteohub,2013-03-13 05:00:00,
2013-03-12 22:07:00,50.7,46.9,30.13,WSW,256,0.0,0.0,87,0.00,,,0.00,0.0,meteohub,2013-03-13 05:07:00,
2013-03-12 22:12:00,50.7,46.9,30.13,WSW,256,0.0,0.0,87,0.00,,,0.00,0.0,meteohub,2013-03-13 05:12:00,
2013-03-12 22:19:00,50.4,46.6,30.13,WSW,256,0.0,0.0,87,0.00,,,0.00,0.0,meteohub,2013-03-13 05:19:00,
2013-03-12 22:25:00,50.2,46.8,30.13,WSW,256,0.0,0.0,88,0.00,,,0.00,0.0,meteohub,2013-03-13 05:25:00,
2013-03-12 22:32:00,50.0,46.6,30.14,WSW,256,0.0,0.0,88,0.00,,,0.00,0.0,meteohub,2013-03-13 05:32:00,
2013-03-12 22:37:00,49.8,46.4,30.13,WSW,256,0.0,0.0,88,0.00,,,0.00,0.0,meteohub,2013-03-13 05:37:00,
2013-03-12 22:42:00,49.8,46.4,30.14,WSW,256,0.0,0.0,88,0.00,,,0.00,0.0,meteohub,2013-03-13 05:42:00,
2013-03-12 22:49:00,49.6,46.6,30.14,WSW,256,0.0,0.0,89,0.00,,,0.00,0.0,meteohub,2013-03-13 05:49:00,
2013-03-12 22:55:00,49.5,46.4,30.14,WSW,256,0.0,0.0,89,0.00,,,0.00,0.0,meteohub,2013-03-13 05:55:00,
2013-03-12 23:01:00,49.3,46.2,30.14,WSW,256,0.0,0.0,89,0.00,,,0.00,0.0,meteohub,2013-03-13 06:01:00,
2013-03-12 23:07:00,49.1,46.2,30.14,WSW,256,0.0,0.0,90,0.00,,,0.00,0.0,meteohub,2013-03-13 06:07:00,
2013-03-12 23:12:00,49.1,46.2,30.15,WSW,256,0.0,0.0,90,0.00,,,0.00,0.0,meteohub,2013-03-13 06:12:00,
2013-03-12 23:17:00,48.9,46.0,30.15,WSW,256,0.0,0.0,90,0.00,,,0.00,0.0,meteohub,2013-03-13 06:17:00,
2013-03-12 23:22:00,48.9,46.0,30.15,WSW,256,0.0,0.0,90,0.00,,,0.00,0.0,meteohub,2013-03-13 06:22:00,
2013-03-12 23:27:00,48.7,45.9,30.15,WSW,256,0.0,0.0,90,0.00,,,0.00,0.0,meteohub,2013-03-13 06:27:00,
2013-03-12 23:33:00,48.6,45.7,30.15,WSW,256,0.0,0.0,90,0.00,,,0.00,0.0,meteohub,2013-03-13 06:33:00,
2013-03-12 23:39:00,48.6,45.7,30.15,WSW,256,0.0,0.0,90,0.00,,,0.00,0.0,meteohub,2013-03-13 06:39:00,
2013-03-12 23:45:00,48.4,45.9,30.15,WSW,256,0.0,0.0,91,0.00,,,0.00,0.0,meteohub,2013-03-13 06:45:00,
2013-03-12 23:52:00,48.2,45.7,30.14,WSW,256,0.0,0.0,91,0.00,,,0.00,0.0,meteohub,2013-03-13 06:52:00,
2013-03-12 23:57:00,48.0,45.5,30.14,WSW,256,0.0,0.0,91,0.00,,,0.00,0.0,meteohub,2013-03-13 06:57:00,